sensor_id;sensor_type;location;lat;lon;timestamp;pressure;altitude;pressure_sealevel;temperature;humidity
70730;BME280;58315;53.336;55.932;2023-01-28T00:00:32;100694.34;;;-9.01;55.07
70730;BME280;58315;53.336;55.932;2023-01-28T00:02:58;100697.72;;;-9.05;55.27
70730;BME280;58315;53.336;55.932;2023-01-28T00:05:24;100696.88;;;-9.04;55.41
70730;BME280;58315;53.336;55.932;2023-01-28T00:07:50;100706.22;;;-9.11;55.44
70730;BME280;58315;53.336;55.932;2023-01-28T00:10:16;100709.47;;;-9.29;55.57
70730;BME280;58315;53.336;55.932;2023-01-28T00:12:42;100712.97;;;-9.20;55.32
70730;BME280;58315;53.336;55.932;2023-01-28T00:15:09;100707.91;;;-9.11;54.98
70730;BME280;58315;53.336;55.932;2023-01-28T00:17:36;100713.78;;;-9.28;55.35
70730;BME280;58315;53.336;55.932;2023-01-28T00:20:03;100722.38;;;-9.19;55.51
70730;BME280;58315;53.336;55.932;2023-01-28T00:22:30;100719.06;;;-9.06;55.33
70730;BME280;58315;53.336;55.932;2023-01-28T00:24:57;100706.25;;;-9.09;54.99
70730;BME280;58315;53.336;55.932;2023-01-28T00:27:24;100707.13;;;-9.04;54.78
70730;BME280;58315;53.336;55.932;2023-01-28T00:29:49;100711.38;;;-9.03;54.69
70730;BME280;58315;53.336;55.932;2023-01-28T00:32:15;100706.28;;;-9.02;54.87
70730;BME280;58315;53.336;55.932;2023-01-28T00:34:41;100701.19;;;-8.97;54.68
70730;BME280;58315;53.336;55.932;2023-01-28T00:37:08;100690.06;;;-9.02;54.61
70730;BME280;58315;53.336;55.932;2023-01-28T00:39:34;100695.22;;;-8.96;54.96
70730;BME280;58315;53.336;55.932;2023-01-28T00:42:00;100700.41;;;-8.90;54.50
70730;BME280;58315;53.336;55.932;2023-01-28T00:44:26;100701.16;;;-9.05;54.47
70730;BME280;58315;53.336;55.932;2023-01-28T00:46:52;100700.31;;;-9.02;54.26
70730;BME280;58315;53.336;55.932;2023-01-28T00:49:21;100702.81;;;-9.08;54.47
70730;BME280;58315;53.336;55.932;2023-01-28T00:51:47;100693.47;;;-9.06;54.86
70730;BME280;58315;53.336;55.932;2023-01-28T00:54:14;100690.81;;;-9.15;55.08
70730;BME280;58315;53.336;55.932;2023-01-28T00:56:40;100697.59;;;-9.22;54.95
70730;BME280;58315;53.336;55.932;2023-01-28T00:59:06;100702.66;;;-9.31;55.36
70730;BME280;58315;53.336;55.932;2023-01-28T01:01:33;100694.13;;;-9.30;55.27
70730;BME280;58315;53.336;55.932;2023-01-28T01:03:59;100695.03;;;-9.22;55.40
70730;BME280;58315;53.336;55.932;2023-01-28T01:06:31;100696.75;;;-9.23;55.36
70730;BME280;58315;53.336;55.932;2023-01-28T01:08:58;100696.78;;;-9.19;55.35
70730;BME280;58315;53.336;55.932;2023-01-28T01:11:24;100695.84;;;-9.26;55.28
70730;BME280;58315;53.336;55.932;2023-01-28T01:13:56;100701.84;;;-9.27;55.36
70730;BME280;58315;53.336;55.932;2023-01-28T01:16:25;100706.91;;;-9.35;55.47
70730;BME280;58315;53.336;55.932;2023-01-28T01:18:52;100707.69;;;-9.40;55.47
70730;BME280;58315;53.336;55.932;2023-01-28T01:21:21;100694.09;;;-9.33;55.63
70730;BME280;58315;53.336;55.932;2023-01-28T01:23:47;100700.06;;;-9.34;55.34
70730;BME280;58315;53.336;55.932;2023-01-28T01:26:14;100691.56;;;-9.29;55.29
70730;BME280;58315;53.336;55.932;2023-01-28T01:28:40;100695.88;;;-9.23;55.36
70730;BME280;58315;53.336;55.932;2023-01-28T01:31:15;100691.59;;;-9.27;55.47
70730;BME280;58315;53.336;55.932;2023-01-28T01:33:43;100693.31;;;-9.23;55.33
70730;BME280;58315;53.336;55.932;2023-01-28T01:36:10;100706.97;;;-9.23;55.10
70730;BME280;58315;53.336;55.932;2023-01-28T01:38:37;100702.75;;;-9.19;54.67
70730;BME280;58315;53.336;55.932;2023-01-28T01:41:04;100710.25;;;-9.42;54.58
70730;BME280;58315;53.336;55.932;2023-01-28T01:46:12;100716.81;;;-9.68;55.35
70730;BME280;58315;53.336;55.932;2023-01-28T01:48:38;100713.41;;;-9.67;55.26
70730;BME280;58315;53.336;55.932;2023-01-28T01:51:14;100700.63;;;-9.66;55.58
70730;BME280;58315;53.336;55.932;2023-01-28T01:53:43;100703.13;;;-9.74;55.44
70730;BME280;58315;53.336;55.932;2023-01-28T01:56:14;100710.75;;;-9.78;55.47
70730;BME280;58315;53.336;55.932;2023-01-28T01:58:43;100714.91;;;-9.88;55.78
70730;BME280;58315;53.336;55.932;2023-01-28T02:01:12;100708.00;;;-9.97;55.69
70730;BME280;58315;53.336;55.932;2023-01-28T02:03:50;100706.31;;;-9.93;55.60
70730;BME280;58315;53.336;55.932;2023-01-28T02:06:18;100706.22;;;-10.05;55.54
70730;BME280;58315;53.336;55.932;2023-01-28T02:08:44;100702.00;;;-9.99;55.32
70730;BME280;58315;53.336;55.932;2023-01-28T02:11:11;100702.09;;;-9.88;55.06
70730;BME280;58315;53.336;55.932;2023-01-28T02:13:41;100702.88;;;-9.95;55.14
70730;BME280;58315;53.336;55.932;2023-01-28T02:16:09;100689.13;;;-10.06;55.21
70730;BME280;58315;53.336;55.932;2023-01-28T02:18:36;100696.84;;;-10.03;55.54
70730;BME280;58315;53.336;55.932;2023-01-28T02:27:09;100695.41;;;-9.80;54.93
70730;BME280;58315;53.336;55.932;2023-01-28T02:35:28;100694.59;;;-9.73;54.56
70730;BME280;58315;53.336;55.932;2023-01-28T02:37:59;100705.53;;;-9.87;54.36
70730;BME280;58315;53.336;55.932;2023-01-28T02:40:31;100707.03;;;-10.08;54.79
70730;BME280;58315;53.336;55.932;2023-01-28T02:42:59;100705.22;;;-10.15;55.21
70730;BME280;58315;53.336;55.932;2023-01-28T02:45:30;100711.31;;;-10.05;54.78
70730;BME280;58315;53.336;55.932;2023-01-28T02:48:21;100707.03;;;-10.08;54.70
70730;BME280;58315;53.336;55.932;2023-01-28T02:51:04;100697.53;;;-10.16;55.00
70730;BME280;58315;53.336;55.932;2023-01-28T02:54:11;100705.22;;;-10.15;54.75
70730;BME280;58315;53.336;55.932;2023-01-28T02:56:56;100720.53;;;-10.16;54.31
70730;BME280;58315;53.336;55.932;2023-01-28T02:59:27;100711.09;;;-10.27;54.35
70730;BME280;58315;53.336;55.932;2023-01-28T03:05:21;100712.81;;;-10.21;54.43
70730;BME280;58315;53.336;55.932;2023-01-28T03:07:49;100723.88;;;-10.24;54.13
70730;BME280;58315;53.336;55.932;2023-01-28T03:10:19;100716.06;;;-10.36;54.16
70730;BME280;58315;53.336;55.932;2023-01-28T03:12:49;100715.19;;;-10.41;54.55
70730;BME280;58315;53.336;55.932;2023-01-28T03:15:42;100719.59;;;-10.28;54.69
70730;BME280;58315;53.336;55.932;2023-01-28T03:18:43;100722.19;;;-10.23;54.49
70730;BME280;58315;53.336;55.932;2023-01-28T03:21:39;100723.03;;;-10.23;54.44
70730;BME280;58315;53.336;55.932;2023-01-28T03:24:34;100721.34;;;-10.24;54.65
70730;BME280;58315;53.336;55.932;2023-01-28T03:27:28;100723.75;;;-10.36;54.25
70730;BME280;58315;53.336;55.932;2023-01-28T03:33:56;100724.56;;;-10.38;54.48
70730;BME280;58315;53.336;55.932;2023-01-28T03:36:42;100724.56;;;-10.38;54.61
70730;BME280;58315;53.336;55.932;2023-01-28T03:39:43;100722.78;;;-10.46;54.43
70730;BME280;58315;53.336;55.932;2023-01-28T03:42:11;100727.81;;;-10.50;54.67
70730;BME280;58315;53.336;55.932;2023-01-28T03:44:51;100725.44;;;-10.38;54.15
70730;BME280;58315;53.336;55.932;2023-01-28T03:47:20;100740.00;;;-10.31;53.96
70730;BME280;58315;53.336;55.932;2023-01-28T03:49:50;100735.78;;;-10.24;53.90
70730;BME280;58315;53.336;55.932;2023-01-28T03:52:21;100737.66;;;-10.11;54.09
70730;BME280;58315;53.336;55.932;2023-01-28T03:54:48;100737.63;;;-10.14;53.80
70730;BME280;58315;53.336;55.932;2023-01-28T03:57:16;100735.97;;;-10.10;54.24
70730;BME280;58315;53.336;55.932;2023-01-28T03:59:42;100741.97;;;-10.08;53.92
70730;BME280;58315;53.336;55.932;2023-01-28T04:02:09;100735.22;;;-10.02;53.53
70730;BME280;58315;53.336;55.932;2023-01-28T04:04:38;100748.16;;;-9.88;53.70
70730;BME280;58315;53.336;55.932;2023-01-28T04:07:05;100742.09;;;-9.95;53.57
70730;BME280;58315;53.336;55.932;2023-01-28T04:09:52;100748.13;;;-9.89;53.41
70730;BME280;58315;53.336;55.932;2023-01-28T04:12:26;100755.78;;;-9.94;53.33
70730;BME280;58315;53.336;55.932;2023-01-28T04:14:53;100739.44;;;-10.04;52.96
70730;BME280;58315;53.336;55.932;2023-01-28T04:17:27;100744.34;;;-10.21;53.54
70730;BME280;58315;53.336;55.932;2023-01-28T04:19:53;100751.22;;;-10.16;53.51
70730;BME280;58315;53.336;55.932;2023-01-28T04:22:20;100743.50;;;-10.23;53.48
70730;BME280;58315;53.336;55.932;2023-01-28T04:24:46;100743.72;;;-10.04;53.76
70730;BME280;58315;53.336;55.932;2023-01-28T04:27:12;100748.78;;;-10.07;53.35
70730;BME280;58315;53.336;55.932;2023-01-28T04:29:38;100751.38;;;-10.03;53.61
70730;BME280;58315;53.336;55.932;2023-01-28T04:32:25;100754.03;;;-9.97;53.50
70730;BME280;58315;53.336;55.932;2023-01-28T04:35:21;100757.56;;;-9.85;53.70
70730;BME280;58315;53.336;55.932;2023-01-28T04:37:55;100757.47;;;-9.93;53.16
70730;BME280;58315;53.336;55.932;2023-01-28T04:40:40;100758.38;;;-9.89;53.16
70730;BME280;58315;53.336;55.932;2023-01-28T04:43:11;100750.66;;;-9.94;53.63
70730;BME280;58315;53.336;55.932;2023-01-28T04:46:04;100749.03;;;-9.84;53.61
70730;BME280;58315;53.336;55.932;2023-01-28T04:48:38;100750.03;;;-9.72;53.31
70730;BME280;58315;53.336;55.932;2023-01-28T04:51:14;100755.13;;;-9.73;53.14
70730;BME280;58315;53.336;55.932;2023-01-28T04:54:00;100753.53;;;-9.63;53.29
70730;BME280;58315;53.336;55.932;2023-01-28T04:56:29;100755.28;;;-9.61;53.22
70730;BME280;58315;53.336;55.932;2023-01-28T04:58:55;100751.78;;;-9.66;53.29
70730;BME280;58315;53.336;55.932;2023-01-28T05:01:23;100754.31;;;-9.71;52.71
70730;BME280;58315;53.336;55.932;2023-01-28T05:03:50;100742.41;;;-9.65;53.15
70730;BME280;58315;53.336;55.932;2023-01-28T05:06:26;100743.34;;;-9.60;52.80
70730;BME280;58315;53.336;55.932;2023-01-28T05:08:55;100742.44;;;-9.62;52.57
70730;BME280;58315;53.336;55.932;2023-01-28T05:11:21;100739.03;;;-9.64;52.50
70730;BME280;58315;53.336;55.932;2023-01-28T05:13:53;100735.50;;;-9.74;52.76
70730;BME280;58315;53.336;55.932;2023-01-28T05:16:19;100735.50;;;-9.76;53.03
70730;BME280;58315;53.336;55.932;2023-01-28T05:18:46;100747.59;;;-9.59;52.92
70730;BME280;58315;53.336;55.932;2023-01-28T05:21:15;100742.41;;;-9.65;52.39
70730;BME280;58315;53.336;55.932;2023-01-28T05:23:42;100747.41;;;-9.78;52.39
70730;BME280;58315;53.336;55.932;2023-01-28T05:26:09;100743.19;;;-9.73;52.43
70730;BME280;58315;53.336;55.932;2023-01-28T05:28:35;100749.31;;;-9.61;52.45
70730;BME280;58315;53.336;55.932;2023-01-28T05:31:05;100759.59;;;-9.55;52.39
70730;BME280;58315;53.336;55.932;2023-01-28T05:33:32;100760.44;;;-9.58;52.21
70730;BME280;58315;53.336;55.932;2023-01-28T05:35:58;100763.00;;;-9.58;51.94
70730;BME280;58315;53.336;55.932;2023-01-28T05:38:24;100762.03;;;-9.66;51.64
70730;BME280;58315;53.336;55.932;2023-01-28T05:40:50;100761.94;;;-9.74;51.69
70730;BME280;58315;53.336;55.932;2023-01-28T05:43:16;100760.31;;;-9.68;52.06
70730;BME280;58315;53.336;55.932;2023-01-28T05:45:45;100762.03;;;-9.66;51.97
70730;BME280;58315;53.336;55.932;2023-01-28T05:48:41;100755.91;;;-9.82;51.66
70730;BME280;58315;53.336;55.932;2023-01-28T05:51:33;100756.66;;;-9.89;51.75
70730;BME280;58315;53.336;55.932;2023-01-28T05:53:59;100762.56;;;-9.95;51.70
70730;BME280;58315;53.336;55.932;2023-01-28T05:56:25;100759.25;;;-9.86;52.04
70730;BME280;58315;53.336;55.932;2023-01-28T05:58:51;100767.72;;;-9.93;51.50
70730;BME280;58315;53.336;55.932;2023-01-28T06:01:18;100766.03;;;-9.88;51.58
70730;BME280;58315;53.336;55.932;2023-01-28T06:03:49;100766.09;;;-9.85;51.44
70730;BME280;58315;53.336;55.932;2023-01-28T06:06:16;100758.63;;;-9.66;51.32
70730;BME280;58315;53.336;55.932;2023-01-28T06:08:42;100764.47;;;-9.77;51.14
70730;BME280;58315;53.336;55.932;2023-01-28T06:11:09;100755.13;;;-9.75;51.11
70730;BME280;58315;53.336;55.932;2023-01-28T06:13:36;100759.38;;;-9.75;51.22
70730;BME280;58315;53.336;55.932;2023-01-28T06:16:37;100761.25;;;-9.59;51.09
70730;BME280;58315;53.336;55.932;2023-01-28T06:19:32;100773.47;;;-9.32;50.95
70730;BME280;58315;53.336;55.932;2023-01-28T06:21:58;100763.22;;;-9.35;50.53
70730;BME280;58315;53.336;55.932;2023-01-28T06:24:24;100770.13;;;-9.23;50.57
70730;BME280;58315;53.336;55.932;2023-01-28T06:26:50;100768.47;;;-9.19;50.38
70730;BME280;58315;53.336;55.932;2023-01-28T06:29:16;100768.66;;;-8.98;49.90
70730;BME280;58315;53.336;55.932;2023-01-28T06:31:42;100763.44;;;-9.10;49.63
70730;BME280;58315;53.336;55.932;2023-01-28T06:34:09;100768.44;;;-9.24;50.14
70730;BME280;58315;53.336;55.932;2023-01-28T06:36:35;100765.84;;;-9.26;50.04
70730;BME280;58315;53.336;55.932;2023-01-28T06:39:03;100766.78;;;-9.14;50.40
70730;BME280;58315;53.336;55.932;2023-01-28T06:41:29;100780.59;;;-8.99;50.19
70730;BME280;58315;53.336;55.932;2023-01-28T06:43:55;100775.59;;;-8.83;50.09
70730;BME280;58315;53.336;55.932;2023-01-28T06:46:21;100773.78;;;-8.98;49.83
70730;BME280;58315;53.336;55.932;2023-01-28T06:48:47;100773.81;;;-8.89;50.09
70730;BME280;58315;53.336;55.932;2023-01-28T06:51:14;100777.47;;;-8.56;50.13
70730;BME280;58315;53.336;55.932;2023-01-28T06:53:40;100781.00;;;-8.36;49.58
70730;BME280;58315;53.336;55.932;2023-01-28T06:56:06;100781.94;;;-8.20;49.47
70730;BME280;58315;53.336;55.932;2023-01-28T06:58:33;100780.22;;;-8.22;49.43
70730;BME280;58315;53.336;55.932;2023-01-28T07:00:59;100787.16;;;-8.03;49.16
70730;BME280;58315;53.336;55.932;2023-01-28T07:03:44;100768.28;;;-8.14;48.94
70730;BME280;58315;53.336;55.932;2023-01-28T07:06:10;100771.72;;;-8.11;49.03
70730;BME280;58315;53.336;55.932;2023-01-28T07:08:36;100772.56;;;-8.13;48.79
70730;BME280;58315;53.336;55.932;2023-01-28T07:11:02;100769.16;;;-8.09;48.90
70730;BME280;58315;53.336;55.932;2023-01-28T07:13:29;100771.75;;;-8.02;48.95
70730;BME280;58315;53.336;55.932;2023-01-28T07:15:55;100776.94;;;-7.88;48.94
70730;BME280;58315;53.336;55.932;2023-01-28T07:18:21;100774.34;;;-8.00;48.64
70730;BME280;58315;53.336;55.932;2023-01-28T07:20:47;100765.75;;;-8.07;48.76
70730;BME280;58315;53.336;55.932;2023-01-28T07:23:13;100760.59;;;-8.17;48.79
70730;BME280;58315;53.336;55.932;2023-01-28T07:25:39;100759.72;;;-8.21;48.89
70730;BME280;58315;53.336;55.932;2023-01-28T07:28:05;100754.66;;;-8.04;49.08
70730;BME280;58315;53.336;55.932;2023-01-28T07:30:31;100747.88;;;-7.88;49.04
70730;BME280;58315;53.336;55.932;2023-01-28T07:32:58;100750.44;;;-7.88;48.55
70730;BME280;58315;53.336;55.932;2023-01-28T07:35:25;100750.47;;;-7.81;48.44
70730;BME280;58315;53.336;55.932;2023-01-28T07:37:56;100750.50;;;-7.67;48.46
70730;BME280;58315;53.336;55.932;2023-01-28T07:40:24;100752.25;;;-7.55;48.31
70730;BME280;58315;53.336;55.932;2023-01-28T07:42:50;100764.22;;;-7.54;48.54
70730;BME280;58315;53.336;55.932;2023-01-28T07:45:39;100748.00;;;-7.33;47.94
70730;BME280;58315;53.336;55.932;2023-01-28T07:48:08;100748.88;;;-7.26;48.24
70730;BME280;58315;53.336;55.932;2023-01-28T07:50:36;100750.56;;;-7.24;47.84
70730;BME280;58315;53.336;55.932;2023-01-28T07:53:09;100749.72;;;-7.03;47.83
70730;BME280;58315;53.336;55.932;2023-01-28T07:55:36;100754.84;;;-7.03;48.07
70730;BME280;58315;53.336;55.932;2023-01-28T07:58:05;100750.59;;;-7.04;47.53
70730;BME280;58315;53.336;55.932;2023-01-28T08:00:34;100751.44;;;-6.97;47.36
70730;BME280;58315;53.336;55.932;2023-01-28T08:03:08;100742.00;;;-6.98;47.49
70730;BME280;58315;53.336;55.932;2023-01-28T08:05:43;100749.72;;;-6.92;47.39
70730;BME280;58315;53.336;55.932;2023-01-28T08:08:10;100742.84;;;-6.95;47.26
70730;BME280;58315;53.336;55.932;2023-01-28T08:10:37;100728.31;;;-6.96;47.28
70730;BME280;58315;53.336;55.932;2023-01-28T08:13:03;100726.59;;;-6.95;47.20
70730;BME280;58315;53.336;55.932;2023-01-28T08:15:30;100718.91;;;-7.08;47.46
70730;BME280;58315;53.336;55.932;2023-01-28T08:17:57;100724.03;;;-7.11;47.78
70730;BME280;58315;53.336;55.932;2023-01-28T08:20:24;100722.31;;;-7.01;47.77
70730;BME280;58315;53.336;55.932;2023-01-28T08:22:51;100726.59;;;-6.97;47.18
70730;BME280;58315;53.336;55.932;2023-01-28T08:25:17;100721.44;;;-6.88;47.52
70730;BME280;58315;53.336;55.932;2023-01-28T08:27:43;100718.03;;;-6.82;47.15
70730;BME280;58315;53.336;55.932;2023-01-28T08:30:09;100708.63;;;-7.08;47.70
70730;BME280;58315;53.336;55.932;2023-01-28T08:32:35;100709.47;;;-7.04;47.81
70730;BME280;58315;53.336;55.932;2023-01-28T08:35:02;100718.88;;;-7.11;47.61
70730;BME280;58315;53.336;55.932;2023-01-28T08:37:29;100719.75;;;-6.99;47.69
70730;BME280;58315;53.336;55.932;2023-01-28T08:39:55;100721.47;;;-7.00;47.46
70730;BME280;58315;53.336;55.932;2023-01-28T08:42:20;100715.44;;;-6.99;47.72
70730;BME280;58315;53.336;55.932;2023-01-28T08:44:46;100720.63;;;-6.97;48.12
70730;BME280;58315;53.336;55.932;2023-01-28T08:47:13;100716.34;;;-7.09;47.96
70730;BME280;58315;53.336;55.932;2023-01-28T08:49:39;100715.47;;;-7.10;48.14
70730;BME280;58315;53.336;55.932;2023-01-28T08:52:05;100723.16;;;-6.99;48.13
70730;BME280;58315;53.336;55.932;2023-01-28T08:54:31;100721.44;;;-6.82;48.08
70730;BME280;58315;53.336;55.932;2023-01-28T08:56:57;100734.25;;;-6.56;48.03
70730;BME280;58315;53.336;55.932;2023-01-28T08:59:23;100736.72;;;-6.20;47.71
70730;BME280;58315;53.336;55.932;2023-01-28T09:01:50;100730.66;;;-6.02;47.56
70730;BME280;58315;53.336;55.932;2023-01-28T09:04:15;100726.97;;;-5.62;47.56
70730;BME280;58315;53.336;55.932;2023-01-28T09:06:42;100732.13;;;-5.63;46.28
70730;BME280;58315;53.336;55.932;2023-01-28T09:09:07;100720.97;;;-5.67;46.18
70730;BME280;58315;53.336;55.932;2023-01-28T09:11:33;100731.22;;;-5.56;46.43
70730;BME280;58315;53.336;55.932;2023-01-28T09:13:59;100726.00;;;-5.45;46.16
70730;BME280;58315;53.336;55.932;2023-01-28T09:16:25;100720.81;;;-5.39;45.59
70730;BME280;58315;53.336;55.932;2023-01-28T09:18:51;100719.94;;;-5.35;46.01
70730;BME280;58315;53.336;55.932;2023-01-28T09:21:19;100715.69;;;-5.42;45.38
70730;BME280;58315;53.336;55.932;2023-01-28T09:23:45;100714.06;;;-5.54;46.31
70730;BME280;58315;53.336;55.932;2023-01-28T09:26:11;100713.19;;;-5.51;45.60
70730;BME280;58315;53.336;55.932;2023-01-28T09:28:56;100708.00;;;-5.50;45.96
70730;BME280;58315;53.336;55.932;2023-01-28T09:31:22;100709.72;;;-5.47;45.42
70730;BME280;58315;53.336;55.932;2023-01-28T09:33:49;100710.59;;;-5.51;45.94
70730;BME280;58315;53.336;55.932;2023-01-28T09:36:21;100719.25;;;-5.62;46.44
70730;BME280;58315;53.336;55.932;2023-01-28T09:38:47;100723.53;;;-5.64;46.53
70730;BME280;58315;53.336;55.932;2023-01-28T09:41:27;100719.28;;;-5.68;46.54
70730;BME280;58315;53.336;55.932;2023-01-28T09:47:03;100717.50;;;-5.52;46.38
70730;BME280;58315;53.336;55.932;2023-01-28T09:49:42;100713.13;;;-5.41;46.21
70730;BME280;58315;53.336;55.932;2023-01-28T09:52:13;100710.59;;;-5.50;46.42
70730;BME280;58315;53.336;55.932;2023-01-28T09:57:50;100703.75;;;-5.57;46.71
70730;BME280;58315;53.336;55.932;2023-01-28T10:00:21;100700.31;;;-5.51;46.74
70730;BME280;58315;53.336;55.932;2023-01-28T10:05:27;100707.97;;;-5.44;46.92
70730;BME280;58315;53.336;55.932;2023-01-28T10:10:46;100711.38;;;-5.37;46.71
70730;BME280;58315;53.336;55.932;2023-01-28T10:13:28;100705.34;;;-5.38;46.82
70730;BME280;58315;53.336;55.932;2023-01-28T10:18:34;100700.31;;;-5.56;47.44
70730;BME280;58315;53.336;55.932;2023-01-28T10:21:14;100695.13;;;-5.50;47.38
70730;BME280;58315;53.336;55.932;2023-01-28T10:23:59;100696.00;;;-5.51;47.02
70730;BME280;58315;53.336;55.932;2023-01-28T10:26:35;100689.22;;;-5.63;47.08
70730;BME280;58315;53.336;55.932;2023-01-28T10:29:10;100695.25;;;-5.65;47.47
70730;BME280;58315;53.336;55.932;2023-01-28T10:31:42;100699.53;;;-5.64;47.47
70730;BME280;58315;53.336;55.932;2023-01-28T10:34:10;100690.06;;;-5.59;47.64
70730;BME280;58315;53.336;55.932;2023-01-28T10:36:36;100692.69;;;-5.68;47.40
70730;BME280;58315;53.336;55.932;2023-01-28T10:39:02;100697.00;;;-5.70;47.35
70730;BME280;58315;53.336;55.932;2023-01-28T10:41:28;100685.78;;;-5.65;47.71
70730;BME280;58315;53.336;55.932;2023-01-28T10:43:55;100693.56;;;-5.69;47.54
70730;BME280;58315;53.336;55.932;2023-01-28T10:46:26;100692.72;;;-5.73;47.81
70730;BME280;58315;53.336;55.932;2023-01-28T10:48:59;100692.75;;;-5.80;47.78
70730;BME280;58315;53.336;55.932;2023-01-28T10:51:39;100691.91;;;-5.86;48.19
70730;BME280;58315;53.336;55.932;2023-01-28T10:54:22;100697.06;;;-5.89;48.09
70730;BME280;58315;53.336;55.932;2023-01-28T10:56:51;100693.78;;;-6.03;48.19
70730;BME280;58315;53.336;55.932;2023-01-28T10:59:30;100694.59;;;-6.01;48.59
70730;BME280;58315;53.336;55.932;2023-01-28T11:02:32;100686.78;;;-5.87;48.79
70730;BME280;58315;53.336;55.932;2023-01-28T11:07:31;100686.06;;;-6.11;48.72
70730;BME280;58315;53.336;55.932;2023-01-28T11:09:57;100690.44;;;-6.23;48.50
70730;BME280;58315;53.336;55.932;2023-01-28T11:12:25;100675.84;;;-6.21;49.06
70730;BME280;58315;53.336;55.932;2023-01-28T11:14:58;100667.31;;;-6.33;49.20
70730;BME280;58315;53.336;55.932;2023-01-28T11:17:27;100667.31;;;-6.33;48.94
70730;BME280;58315;53.336;55.932;2023-01-28T11:19:56;100675.06;;;-6.39;49.31
70730;BME280;58315;53.336;55.932;2023-01-28T11:22:35;100663.88;;;-6.30;49.00
70730;BME280;58315;53.336;55.932;2023-01-28T11:27:55;100658.81;;;-6.55;49.47
70730;BME280;58315;53.336;55.932;2023-01-28T11:30:28;100676.81;;;-6.55;49.41
70730;BME280;58315;53.336;55.932;2023-01-28T11:33:16;100675.13;;;-6.63;49.80
70730;BME280;58315;53.336;55.932;2023-01-28T11:36:05;100675.13;;;-6.60;50.05
70730;BME280;58315;53.336;55.932;2023-01-28T11:38:31;100666.59;;;-6.68;49.70
70730;BME280;58315;53.336;55.932;2023-01-28T11:40:58;100670.00;;;-6.71;50.00
70730;BME280;58315;53.336;55.932;2023-01-28T11:43:27;100682.94;;;-7.05;50.29
70730;BME280;58315;53.336;55.932;2023-01-28T11:51:50;100687.19;;;-6.93;50.69
70730;BME280;58315;53.336;55.932;2023-01-28T12:11:23;100688.03;;;-6.88;51.04
70730;BME280;58315;53.336;55.932;2023-01-28T12:14:42;100686.34;;;-6.87;50.78
70730;BME280;58315;53.336;55.932;2023-01-28T12:28:33;100679.50;;;-7.05;50.84
70730;BME280;58315;53.336;55.932;2023-01-28T12:44:41;100679.47;;;-7.02;51.29
70730;BME280;58315;53.336;55.932;2023-01-28T12:47:19;100676.94;;;-7.11;51.58
70730;BME280;58315;53.336;55.932;2023-01-28T12:49:50;100683.78;;;-7.13;51.52
70730;BME280;58315;53.336;55.932;2023-01-28T12:52:22;100681.25;;;-7.27;51.64
70730;BME280;58315;53.336;55.932;2023-01-28T12:55:05;100678.63;;;-7.13;51.61
70730;BME280;58315;53.336;55.932;2023-01-28T12:57:38;100673.50;;;-7.18;51.64
70730;BME280;58315;53.336;55.932;2023-01-28T13:02:45;100667.53;;;-7.23;51.49
70730;BME280;58315;53.336;55.932;2023-01-28T13:05:17;100665.81;;;-7.29;51.82
70730;BME280;58315;53.336;55.932;2023-01-28T13:08:19;100668.38;;;-7.10;51.68
70730;BME280;58315;53.336;55.932;2023-01-28T13:10:47;100672.66;;;-7.14;51.57
70730;BME280;58315;53.336;55.932;2023-01-28T13:15:48;100679.50;;;-7.10;51.52
70730;BME280;58315;53.336;55.932;2023-01-28T13:21:06;100677.78;;;-7.15;51.25
70730;BME280;58315;53.336;55.932;2023-01-28T13:28:49;100678.66;;;-7.25;51.77
70730;BME280;58315;53.336;55.932;2023-01-28T13:31:18;100682.91;;;-7.35;51.87
70730;BME280;58315;53.336;55.932;2023-01-28T13:33:59;100681.22;;;-7.32;51.83
70730;BME280;58315;53.336;55.932;2023-01-28T13:36:43;100678.66;;;-7.32;51.83
70730;BME280;58315;53.336;55.932;2023-01-28T13:46:57;100681.22;;;-7.39;52.25
70730;BME280;58315;53.336;55.932;2023-01-28T13:49:37;100673.53;;;-7.35;52.01
70730;BME280;58315;53.336;55.932;2023-01-28T13:54:40;100682.06;;;-7.22;51.96
70730;BME280;58315;53.336;55.932;2023-01-28T14:00:32;100682.09;;;-7.45;52.01
70730;BME280;58315;53.336;55.932;2023-01-28T14:05:55;100683.78;;;-7.41;52.31
70730;BME280;58315;53.336;55.932;2023-01-28T14:11:18;100679.50;;;-7.39;52.01
70730;BME280;58315;53.336;55.932;2023-01-28T14:14:25;100676.94;;;-7.30;52.28
70730;BME280;58315;53.336;55.932;2023-01-28T14:17:20;100679.53;;;-7.26;52.17
70730;BME280;58315;53.336;55.932;2023-01-28T14:19:52;100685.50;;;-7.35;51.74
70730;BME280;58315;53.336;55.932;2023-01-28T14:22:20;100697.47;;;-7.28;51.74
70730;BME280;58315;53.336;55.932;2023-01-28T14:24:47;100692.34;;;-7.33;51.82
70730;BME280;58315;53.336;55.932;2023-01-28T14:27:19;100690.63;;;-7.29;51.93
70730;BME280;58315;53.336;55.932;2023-01-28T14:30:17;100687.22;;;-7.16;51.85
70730;BME280;58315;53.336;55.932;2023-01-28T14:32:51;100685.50;;;-7.15;51.59
70730;BME280;58315;53.336;55.932;2023-01-28T14:35:28;100688.91;;;-7.07;51.68
70730;BME280;58315;53.336;55.932;2023-01-28T14:37:56;100682.94;;;-7.09;51.21
70730;BME280;58315;53.336;55.932;2023-01-28T14:40:24;100685.50;;;-7.03;51.13
70730;BME280;58315;53.336;55.932;2023-01-28T14:42:54;100688.91;;;-7.01;51.43
70730;BME280;58315;53.336;55.932;2023-01-28T14:59:19;100682.91;;;-7.17;51.29
70730;BME280;58315;53.336;55.932;2023-01-28T15:01:48;100683.78;;;-7.22;51.03
70730;BME280;58315;53.336;55.932;2023-01-28T15:04:30;100684.66;;;-7.11;51.41
70730;BME280;58315;53.336;55.932;2023-01-28T15:07:01;100692.34;;;-7.20;51.14
70730;BME280;58315;53.336;55.932;2023-01-28T15:09:39;100694.06;;;-7.38;51.21
70730;BME280;58315;53.336;55.932;2023-01-28T15:12:06;100682.94;;;-7.34;51.54
70730;BME280;58315;53.336;55.932;2023-01-28T15:14:32;100689.78;;;-7.26;51.38